Wetterdaten: Woche 05.11.12 - 11.11.12 (KW45)
Datum Zeit Temp. A. Feuchte A. Luftdruck Regen Wind Richtung Taupunkt Windchill Windben
05.11.2012 00:00 13,8 C 83 % 997,4 hPa 0,0 l/m 8,1 km/h N 10,8 C 12,8 C 20,9 km/h
05.11.2012 01:00 13,3 C 81 % 997,5 hPa 0,0 l/m 7,7 km/h N 10,1 C 12,0 C 19,7 km/h
05.11.2012 02:00 10,0 C 83 % 998,8 hPa 0,8 l/m 7,9 km/h N 7,2 C 8,9 C 24,1 km/h
05.11.2012 03:00 9,7 C 84 % 999,2 hPa 0,8 l/m 5,3 km/h N 7,1 C 9,5 C 18,5 km/h
05.11.2012 04:00 9,4 C 85 % 999,6 hPa 1,3 l/m 11,8 km/h N 6,9 C 5,9 C 29,8 km/h
05.11.2012 05:00 9,0 C 85 % 1000,0 hPa 1,8 l/m 8,7 km/h N 6,6 C 7,4 C 25,4 km/h
05.11.2012 06:00 8,7 C 85 % 1000,5 hPa 7,3 l/m 9,8 km/h N 6,3 C 6,3 C 27,4 km/h
05.11.2012 07:00 8,1 C 84 % 1000,9 hPa 7,0 l/m 6,8 km/h N 5,5 C 7,6 C 20,1 km/h
05.11.2012 08:00 7,7 C 85 % 1002,1 hPa 1,8 l/m 9,6 km/h N 5,3 C 5,4 C 25,4 km/h
05.11.2012 09:00 7,5 C 85 % 1002,7 hPa 1,8 l/m 9,8 km/h N 5,1 C 5,0 C 28,1 km/h
05.11.2012 10:00 7,8 C 84 % 1003,0 hPa 0,0 l/m 9,2 km/h N 5,3 C 5,7 C 23,3 km/h
05.11.2012 11:00 8,0 C 81 % 1002,6 hPa 0,0 l/m 11,6 km/h N 5,0 C 4,5 C 27,4 km/h
05.11.2012 12:00 7,9 C 79 % 1002,8 hPa 0,3 l/m 15,4 km/h N 4,5 C 2,4 C 33,8 km/h
05.11.2012 13:00 7,2 C 79 % 1003,0 hPa 0,0 l/m 17,9 km/h N 3,8 C 0,6 C 37,8 km/h
05.11.2012 14:00 6,8 C 81 % 1003,4 hPa 0,0 l/m 13,9 km/h N 3,8 C 1,9 C 34,2 km/h
05.11.2012 15:00 7,3 C 81 % 1004,0 hPa 0,0 l/m 13,2 km/h N 4,2 C 2,8 C 34,6 km/h
05.11.2012 16:00 7,6 C 79 % 1004,3 hPa 0,0 l/m 9,4 km/h N 4,2 C 5,4 C 24,5 km/h
05.11.2012 17:00 8,2 C 77 % 1004,5 hPa 0,0 l/m 12,3 km/h N 4,4 C 4,3 C 28,6 km/h
05.11.2012 18:00 8,4 C 76 % 1005,0 hPa 0,0 l/m 7,5 km/h N 4,4 C 7,4 C 22,5 km/h
05.11.2012 19:00 8,8 C 71 % 1005,4 hPa 0,0 l/m 8,9 km/h N 3,9 C 7,0 C 25,4 km/h
05.11.2012 20:00 8,3 C 70 % 1006,0 hPa 0,0 l/m 3,5 km/h N 3,2 C 8,0 C 12,4 km/h
05.11.2012 21:00 6,2 C 75 % 1006,7 hPa 0,0 l/m 0,1 km/h N 2,1 C 6,2 C 2,4 km/h
05.11.2012 22:00 3,7 C 83 % 1007,3 hPa 0,0 l/m 0,8 km/h N 1,1 C 3,7 C 6,8 km/h
05.11.2012 23:00 8,1 C 74 % 1007,1 hPa 0,0 l/m 9,0 km/h N 3,7 C 6,1 C 32,6 km/h
06.11.2012 00:00 9,2 C 69 % 1007,5 hPa 0,0 l/m 15,8 km/h N 3,7 C 3,8 C 41,0 km/h
06.11.2012 01:00 8,5 C 72 % 1008,9 hPa 0,0 l/m 14,6 km/h N 3,8 C 3,5 C 34,2 km/h
06.11.2012 02:00 8,0 C 74 % 1009,7 hPa 0,0 l/m 6,8 km/h N 3,7 C 7,6 C 20,1 km/h
06.11.2012 03:00 7,3 C 76 % 1010,0 hPa 0,0 l/m 1,6 km/h N 3,2 C 7,3 C 8,0 km/h
06.11.2012 04:00 5,2 C 80 % 1010,7 hPa 0,0 l/m 0,2 km/h N 2,1 C 5,2 C 3,2 km/h
06.11.2012 05:00 6,8 C 79 % 1010,7 hPa 0,0 l/m 4,8 km/h N 3,4 C 6,8 C 19,3 km/h
06.11.2012 06:00 8,1 C 71 % 1010,8 hPa 0,0 l/m 6,5 km/h N 3,1 C 7,8 C 26,1 km/h
06.11.2012 07:00 8,4 C 67 % 1011,6 hPa 0,0 l/m 3,6 km/h N 2,7 C 8,4 C 18,1 km/h
06.11.2012 08:00 9,2 C 63 % 1012,2 hPa 0,0 l/m 7,3 km/h N 2,6 C 7,9 C 26,5 km/h
06.11.2012 09:00 10,3 C 59 % 1012,7 hPa 0,0 l/m 8,8 km/h N 2,6 C 8,8 C 31,3 km/h
06.11.2012 10:00 10,4 C 59 % 1013,5 hPa 0,0 l/m 11,1 km/h N 2,8 C 7,5 C 29,8 km/h
06.11.2012 11:00 10,9 C 59 % 1014,1 hPa 0,0 l/m 12,1 km/h N 3,2 C 7,5 C 35,8 km/h
06.11.2012 12:00 9,9 C 63 % 1014,6 hPa 0,0 l/m 9,9 km/h N 3,2 C 7,7 C 24,9 km/h
06.11.2012 13:00 8,6 C 68 % 1015,1 hPa 0,0 l/m 6,8 km/h N 2,9 C 8,1 C 18,5 km/h
06.11.2012 14:00 7,9 C 68 % 1015,7 hPa 0,0 l/m 5,9 km/h N 2,3 C 7,3 C 17,7 km/h
06.11.2012 15:00 7,4 C 69 % 1016,3 hPa 0,0 l/m 2,5 km/h N 2,2 C 7,4 C 15,3 km/h
06.11.2012 16:00 8,1 C 62 % 1016,9 hPa 0,0 l/m 8,0 km/h N 1,3 C 6,9 C 24,1 km/h
06.11.2012 17:00 7,4 C 61 % 1017,8 hPa 0,0 l/m 6,4 km/h N 0,4 C 6,6 C 21,7 km/h
06.11.2012 18:00 6,8 C 61 % 1018,5 hPa 0,0 l/m 5,5 km/h N -0,1 C 6,4 C 16,1 km/h
06.11.2012 19:00 6,1 C 64 % 1019,0 hPa 0,0 l/m 2,2 km/h N -0,1 C 6,1 C 10,9 km/h
06.11.2012 20:00 5,5 C 68 % 1019,5 hPa 0,0 l/m 0,2 km/h N -0,1 C 5,5 C 3,6 km/h
06.11.2012 21:00 4,9 C 74 % 1020,0 hPa 0,0 l/m 0,4 km/h N 0,7 C 4,9 C 4,8 km/h
06.11.2012 22:00 5,3 C 76 % 1020,3 hPa 0,0 l/m 1,8 km/h N 1,4 C 5,3 C 9,2 km/h
06.11.2012 23:00 6,9 C 71 % 1020,5 hPa 0,0 l/m 8,7 km/h N 1,9 C 5,1 C 25,8 km/h
07.11.2012 00:00 6,6 C 71 % 1020,7 hPa 0,0 l/m 12,0 km/h N 1,6 C 2,6 C 31,4 km/h
07.11.2012 01:00 6,6 C 71 % 1020,8 hPa 0,0 l/m 15,9 km/h N 1,7 C 0,6 C 35,4 km/h
07.11.2012 02:00 6,6 C 69 % 1021,0 hPa 0,0 l/m 19,5 km/h N 1,4 C -0,8 C 40,6 km/h
07.11.2012 03:00 6,4 C 71 % 1021,1 hPa 0,0 l/m 15,6 km/h N 1,5 C 0,6 C 35,4 km/h
07.11.2012 04:00 6,3 C 71 % 1021,2 hPa 0,0 l/m 8,6 km/h N 1,4 C 4,5 C 25,3 km/h
07.11.2012 05:00 6,6 C 68 % 1021,0 hPa 0,0 l/m 8,1 km/h N 1,0 C 5,1 C 27,0 km/h
07.11.2012 06:00 7,0 C 63 % 1021,0 hPa 0,0 l/m 8,8 km/h N 0,4 C 5,2 C 27,4 km/h
07.11.2012 07:00 7,6 C 60 % 1020,6 hPa 0,0 l/m 10,6 km/h N 0,4 C 4,7 C 36,2 km/h
07.11.2012 08:00 8,2 C 59 % 1020,4 hPa 0,0 l/m 19,0 km/h N 0,7 C 1,3 C 41,8 km/h
07.11.2012 09:00 8,6 C 58 % 1020,6 hPa 0,0 l/m 19,9 km/h N 0,8 C 1,6 C 46,7 km/h
07.11.2012 10:00 9,2 C 56 % 1021,1 hPa 0,0 l/m 21,0 km/h N 0,8 C 1,9 C 53,1 km/h
07.11.2012 11:00 9,4 C 58 % 1021,2 hPa 0,0 l/m 23,9 km/h N 1,6 C 1,3 C 53,9 km/h
07.11.2012 12:00 9,6 C 60 % 1021,1 hPa 0,0 l/m 22,3 km/h N 2,1 C 2,0 C 56,7 km/h
07.11.2012 13:00 9,6 C 60 % 1021,8 hPa 0,0 l/m 23,4 km/h N 2,2 C 1,7 C 57,1 km/h
07.11.2012 14:00 9,4 C 62 % 1022,3 hPa 0,0 l/m 22,0 km/h N 2,5 C 2,0 C 53,1 km/h
07.11.2012 15:00 8,6 C 65 % 1023,0 hPa 0,0 l/m 19,6 km/h N 2,4 C 1,6 C 43,5 km/h
07.11.2012 16:00 8,3 C 68 % 1023,5 hPa 0,0 l/m 18,2 km/h N 2,6 C 1,8 C 43,9 km/h
07.11.2012 17:00 8,2 C 70 % 1024,3 hPa 0,0 l/m 16,7 km/h N 3,0 C 2,3 C 44,3 km/h
07.11.2012 18:00 8,1 C 71 % 1025,0 hPa 0,0 l/m 15,1 km/h N 3,2 C 2,9 C 39,4 km/h
07.11.2012 19:00 8,2 C 71 % 1025,1 hPa 0,0 l/m 14,6 km/h N 3,3 C 3,1 C 38,6 km/h
07.11.2012 20:00 8,2 C 72 % 1025,4 hPa 0,0 l/m 16,0 km/h N 3,5 C 2,5 C 37,8 km/h
07.11.2012 21:00 8,4 C 72 % 1025,6 hPa 0,0 l/m 15,5 km/h N 3,6 C 2,9 C 34,6 km/h
07.11.2012 22:00 8,7 C 71 % 1025,4 hPa 0,0 l/m 16,9 km/h N 3,7 C 2,7 C 37,8 km/h
07.11.2012 23:00 8,8 C 71 % 1025,3 hPa 0,0 l/m 12,2 km/h N 3,8 C 5,0 C 33,0 km/h
08.11.2012 00:00 8,9 C 72 % 1025,2 hPa 0,0 l/m 10,9 km/h N 4,2 C 5,9 C 28,6 km/h
08.11.2012 01:00 8,8 C 74 % 1025,6 hPa 0,0 l/m 3,8 km/h N 4,4 C 8,8 C 17,7 km/h
08.11.2012 02:00 8,8 C 71 % 1025,3 hPa 0,0 l/m 4,2 km/h N 3,7 C 8,8 C 15,3 km/h
08.11.2012 03:00 9,0 C 66 % 1024,9 hPa 0,0 l/m 2,8 km/h N 3,0 C 9,0 C 9,3 km/h
08.11.2012 04:00 7,1 C 70 % 1024,9 hPa 0,0 l/m 0,0 km/h N 1,9 C 7,1 C 2,0 km/h
08.11.2012 05:00 4,6 C 75 % 1024,9 hPa 0,0 l/m 0,1 km/h N 0,6 C 4,6 C 2,0 km/h
08.11.2012 06:00 2,3 C 81 % 1024,6 hPa 0,0 l/m 0,0 km/h N -0,7 C 2,3 C 0,0 km/h
08.11.2012 07:00 1,4 C 84 % 1024,5 hPa 0,0 l/m 0,0 km/h N -1,1 C 1,4 C 0,0 km/h
08.11.2012 08:00 3,6 C 83 % 1024,0 hPa 0,0 l/m 0,0 km/h N 0,9 C 3,6 C 0,0 km/h
08.11.2012 09:00 7,8 C 82 % 1023,6 hPa 0,0 l/m 0,5 km/h N 4,8 C 7,8 C 3,2 km/h
08.11.2012 10:00 10,5 C 68 % 1023,1 hPa 0,0 l/m 0,7 km/h N 4,8 C 10,5 C 6,0 km/h
08.11.2012 11:00 11,8 C 64 % 1022,0 hPa 0,0 l/m 0,3 km/h N 5,2 C 11,8 C 2,8 km/h
08.11.2012 12:00 12,1 C 64 % 1020,9 hPa 0,0 l/m 0,3 km/h N 5,5 C 12,1 C 4,4 km/h
08.11.2012 13:00 12,3 C 65 % 1020,2 hPa 0,0 l/m 0,4 km/h N 5,9 C 12,3 C 4,4 km/h
08.11.2012 14:00 12,2 C 66 % 1019,8 hPa 0,0 l/m 0,2 km/h N 6,0 C 12,2 C 2,0 km/h
08.11.2012 15:00 11,9 C 67 % 1019,4 hPa 0,0 l/m 0,0 km/h N 5,9 C 11,9 C 0,0 km/h
08.11.2012 16:00 10,4 C 71 % 1019,1 hPa 0,0 l/m 0,0 km/h N 5,4 C 10,4 C 0,0 km/h
08.11.2012 17:00 8,3 C 76 % 1018,9 hPa 0,0 l/m 0,0 km/h N 4,3 C 8,3 C 0,0 km/h
08.11.2012 18:00 6,9 C 82 % 1018,7 hPa 0,0 l/m 0,0 km/h N 3,9 C 6,9 C 0,0 km/h
08.11.2012 19:00 6,5 C 84 % 1018,5 hPa 0,0 l/m 0,0 km/h N 4,0 C 6,5 C 0,0 km/h
08.11.2012 20:00 6,2 C 84 % 1018,1 hPa 0,0 l/m 0,3 km/h N 3,7 C 6,2 C 2,8 km/h
08.11.2012 21:00 5,9 C 84 % 1017,8 hPa 0,0 l/m 0,0 km/h N 3,5 C 5,9 C 0,4 km/h
08.11.2012 22:00 6,0 C 84 % 1017,4 hPa 0,0 l/m 0,1 km/h N 3,6 C 6,0 C 2,0 km/h
08.11.2012 23:00 8,0 C 78 % 1017,3 hPa 0,0 l/m 2,5 km/h N 4,4 C 8,0 C 11,7 km/h
09.11.2012 00:00 10,2 C 70 % 1017,0 hPa 0,0 l/m 7,3 km/h N 4,9 C 9,5 C 21,3 km/h
09.11.2012 01:00 9,8 C 71 % 1017,3 hPa 0,0 l/m 3,5 km/h N 4,7 C 9,8 C 13,7 km/h
09.11.2012 02:00 8,5 C 76 % 1017,5 hPa 0,0 l/m 3,0 km/h N 4,4 C 8,5 C 8,5 km/h
09.11.2012 03:00 7,7 C 78 % 1017,7 hPa 0,0 l/m 0,2 km/h N 4,1 C 7,7 C 1,2 km/h
09.11.2012 04:00 6,7 C 81 % 1018,3 hPa 0,0 l/m 0,1 km/h N 3,7 C 6,7 C 2,0 km/h
09.11.2012 05:00 7,9 C 80 % 1018,7 hPa 0,0 l/m 3,0 km/h N 4,7 C 7,9 C 15,7 km/h
09.11.2012 06:00 8,1 C 78 % 1018,9 hPa 0,0 l/m 4,8 km/h N 4,5 C 8,0 C 16,9 km/h
09.11.2012 07:00 7,8 C 79 % 1019,3 hPa 0,0 l/m 3,0 km/h N 4,3 C 7,8 C 9,3 km/h
09.11.2012 08:00 8,4 C 78 % 1019,8 hPa 0,0 l/m 3,8 km/h N 4,7 C 8,4 C 14,1 km/h
09.11.2012 09:00 9,2 C 74 % 1020,0 hPa 0,0 l/m 9,1 km/h N 4,8 C 7,3 C 22,5 km/h
09.11.2012 10:00 10,3 C 69 % 1020,5 hPa 0,0 l/m 9,1 km/h N 4,8 C 8,5 C 23,7 km/h
09.11.2012 11:00 10,3 C 68 % 1020,3 hPa 0,0 l/m 7,9 km/h N 4,5 C 9,1 C 19,3 km/h
09.11.2012 12:00 10,5 C 66 % 1020,2 hPa 0,0 l/m 7,5 km/h N 4,4 C 9,5 C 20,1 km/h
09.11.2012 13:00 10,4 C 65 % 1019,9 hPa 0,0 l/m 6,3 km/h N 4,1 C 10,2 C 18,1 km/h
09.11.2012 14:00 10,7 C 64 % 1019,7 hPa 0,0 l/m 6,3 km/h N 4,1 C 10,2 C 15,7 km/h
09.11.2012 15:00 10,5 C 64 % 1019,7 hPa 0,0 l/m 2,5 km/h N 4,0 C 10,5 C 9,2 km/h
09.11.2012 16:00 9,3 C 65 % 1019,8 hPa 0,0 l/m 0,2 km/h N 3,1 C 9,3 C 2,0 km/h
09.11.2012 17:00 6,4 C 72 % 1020,2 hPa 0,0 l/m 0,0 km/h N 1,8 C 6,4 C 0,4 km/h
09.11.2012 18:00 3,7 C 80 % 1020,3 hPa 0,0 l/m 0,0 km/h N 0,6 C 3,7 C 0,0 km/h
09.11.2012 19:00 2,5 C 83 % 1020,1 hPa 0,0 l/m 0,0 km/h N -0,2 C 2,5 C 0,0 km/h
09.11.2012 20:00 1,7 C 84 % 1019,8 hPa 0,0 l/m 0,0 km/h N -0,6 C 1,7 C 0,0 km/h
09.11.2012 21:00 1,3 C 85 % 1019,7 hPa 0,0 l/m 0,0 km/h N -0,9 C 1,3 C 0,0 km/h
09.11.2012 22:00 1,3 C 84 % 1019,4 hPa 0,0 l/m 0,0 km/h N -1,1 C 1,3 C 0,0 km/h
09.11.2012 23:00 1,3 C 84 % 1018,8 hPa 0,0 l/m 0,0 km/h N -1,1 C 1,3 C 0,0 km/h
10.11.2012 00:00 0,8 C 84 % 1018,0 hPa 0,0 l/m 0,0 km/h N -1,7 C 0,8 C 0,0 km/h
10.11.2012 01:00 0,7 C 83 % 1017,0 hPa 0,0 l/m 0,2 km/h N -1,9 C 0,7 C 2,4 km/h
10.11.2012 02:00 5,6 C 81 % 1016,3 hPa 0,0 l/m 5,2 km/h N 2,5 C 5,5 C 20,5 km/h
10.11.2012 03:00 6,3 C 81 % 1015,8 hPa 0,0 l/m 2,3 km/h N 3,3 C 6,3 C 13,3 km/h
10.11.2012 04:00 7,5 C 78 % 1015,3 hPa 0,0 l/m 11,9 km/h N 3,8 C 3,8 C 26,6 km/h
10.11.2012 05:00 7,6 C 74 % 1015,0 hPa 0,0 l/m 10,2 km/h N 3,1 C 4,8 C 27,3 km/h
10.11.2012 06:00 7,3 C 75 % 1014,9 hPa 0,0 l/m 9,1 km/h N 3,1 C 5,2 C 26,1 km/h
10.11.2012 07:00 7,0 C 77 % 1015,5 hPa 0,0 l/m 4,1 km/h N 3,3 C 7,0 C 17,7 km/h
10.11.2012 08:00 7,2 C 78 % 1015,4 hPa 0,0 l/m 4,9 km/h N 3,6 C 7,0 C 16,9 km/h
10.11.2012 09:00 7,8 C 77 % 1015,2 hPa 0,0 l/m 4,9 km/h N 4,0 C 7,6 C 20,1 km/h
10.11.2012 10:00 8,6 C 75 % 1014,6 hPa 0,0 l/m 9,6 km/h N 4,4 C 6,3 C 30,6 km/h
10.11.2012 11:00 9,3 C 73 % 1013,8 hPa 0,0 l/m 14,2 km/h N 4,8 C 4,7 C 32,2 km/h
10.11.2012 12:00 10,0 C 72 % 1012,6 hPa 0,0 l/m 12,2 km/h N 5,1 C 6,7 C 30,9 km/h
10.11.2012 13:00 10,8 C 69 % 1011,3 hPa 0,0 l/m 15,2 km/h N 5,2 C 6,0 C 37,4 km/h
10.11.2012 14:00 10,9 C 69 % 1010,3 hPa 0,0 l/m 14,2 km/h N 5,4 C 6,5 C 31,8 km/h
10.11.2012 15:00 11,0 C 70 % 1009,8 hPa 0,0 l/m 14,9 km/h N 5,7 C 6,4 C 35,8 km/h
10.11.2012 16:00 11,2 C 70 % 1009,1 hPa 0,0 l/m 15,9 km/h N 5,9 C 6,2 C 31,0 km/h
10.11.2012 17:00 10,9 C 72 % 1009,2 hPa 0,0 l/m 13,1 km/h N 6,0 C 7,1 C 26,5 km/h
10.11.2012 18:00 10,6 C 73 % 1009,3 hPa 0,0 l/m 10,1 km/h N 5,9 C 8,3 C 22,9 km/h
10.11.2012 19:00 9,7 C 76 % 1009,4 hPa 0,0 l/m 5,6 km/h N 5,6 C 9,2 C 17,3 km/h
10.11.2012 20:00 9,2 C 78 % 1009,6 hPa 0,0 l/m 1,5 km/h N 5,5 C 9,2 C 8,0 km/h
10.11.2012 21:00 8,9 C 79 % 1009,6 hPa 0,0 l/m 0,2 km/h N 5,4 C 8,9 C 5,6 km/h
10.11.2012 22:00 10,3 C 76 % 1009,5 hPa 0,0 l/m 8,7 km/h N 6,3 C 8,2 C 22,5 km/h
10.11.2012 23:00 10,0 C 76 % 1010,0 hPa 0,0 l/m 9,3 km/h N 5,8 C 8,0 C 21,3 km/h
11.11.2012 00:00 8,7 C 79 % 1010,2 hPa 0,0 l/m 3,6 km/h N 5,3 C 8,6 C 13,3 km/h
11.11.2012 01:00 8,3 C 81 % 1010,3 hPa 0,0 l/m 10,0 km/h N 5,1 C 5,4 C 21,3 km/h
11.11.2012 02:00 8,0 C 82 % 1010,5 hPa 0,0 l/m 3,0 km/h N 5,1 C 8,0 C 11,3 km/h
11.11.2012 03:00 8,1 C 82 % 1010,5 hPa 0,0 l/m 5,3 km/h N 5,2 C 8,0 C 15,3 km/h
11.11.2012 04:00 8,4 C 82 % 1010,2 hPa 0,0 l/m 2,3 km/h N 5,5 C 8,4 C 10,9 km/h
11.11.2012 05:00 9,8 C 80 % 1010,3 hPa 0,0 l/m 1,8 km/h N 6,4 C 9,8 C 8,9 km/h
11.11.2012 06:00 10,0 C 78 % 1010,6 hPa 0,0 l/m 4,6 km/h N 6,3 C 9,9 C 16,1 km/h
11.11.2012 07:00 9,7 C 77 % 1011,4 hPa 0,0 l/m 7,7 km/h N 5,7 C 8,2 C 18,9 km/h
11.11.2012 08:00 8,2 C 79 % 1012,6 hPa 0,0 l/m 7,2 km/h N 4,8 C 7,3 C 20,5 km/h
11.11.2012 09:00 7,6 C 81 % 1012,9 hPa 0,0 l/m 6,8 km/h N 4,6 C 7,2 C 20,5 km/h
11.11.2012 10:00 8,0 C 80 % 1013,1 hPa 0,0 l/m 4,8 km/h N 4,7 C 8,0 C 16,9 km/h
11.11.2012 11:00 9,2 C 77 % 1012,7 hPa 0,0 l/m 2,7 km/h N 5,3 C 9,2 C 14,1 km/h
11.11.2012 12:00 9,7 C 75 % 1012,3 hPa 0,0 l/m 2,0 km/h N 5,4 C 9,7 C 10,9 km/h
11.11.2012 13:00 9,9 C 75 % 1012,5 hPa 0,0 l/m 0,9 km/h N 5,7 C 9,9 C 7,3 km/h
11.11.2012 14:00 10,3 C 75 % 1012,0 hPa 0,0 l/m 2,6 km/h N 5,9 C 10,1 C 11,3 km/h
11.11.2012 15:00 11,6 C 70 % 1011,9 hPa 0,0 l/m 7,1 km/h N 6,2 C 10,6 C 24,5 km/h
11.11.2012 16:00 11,7 C 68 % 1012,0 hPa 0,0 l/m 12,3 km/h N 6,0 C 8,4 C 24,9 km/h
11.11.2012 17:00 11,2 C 69 % 1013,4 hPa 0,0 l/m 8,6 km/h N 5,8 C 9,4 C 22,9 km/h
11.11.2012 18:00 10,8 C 71 % 1014,4 hPa 0,0 l/m 4,5 km/h N 5,7 C 10,5 C 14,1 km/h
11.11.2012 19:00 10,3 C 74 % 1014,6 hPa 0,0 l/m 5,9 km/h N 5,8 C 10,2 C 20,1 km/h
11.11.2012 20:00 10,3 C 75 % 1014,7 hPa 0,0 l/m 6,1 km/h N 5,9 C 9,8 C 19,3 km/h
11.11.2012 21:00 10,6 C 73 % 1015,9 hPa 0,0 l/m 5,2 km/h N 6,0 C 10,6 C 17,3 km/h
11.11.2012 22:00 10,5 C 73 % 1017,0 hPa 0,0 l/m 0,2 km/h N 5,9 C 10,5 C 2,8 km/h
11.11.2012 23:00 9,0 C 77 % 1018,0 hPa 0,0 l/m 0,0 km/h N 5,2 C 9,0 C 0,0 km/h
Min-Datum _ 10.11.12 07.11.12 05.11.12 - 05.11.12 - 10.11.12 07.11.12 05.11.12
_ Min-Zeit 01:15 10:00 01:00 - 21:00 - 01:15 02:00 21:00
Minimum _ 0,3 C 55 % 996,7 hPa - 0,0 km/h - -2,2 C -1,6 C 0,0 km/h
Max-Datum _ 05.11.12 05.11.12 07.11.12 05.11.12 07.11.12 - 05.11.12 05.11.12 07.11.12
_ Max-Zeit 00:45 03:00 20:45 06:45 11:45 - 00:30 01:15 13:15
Maximum _ 14,0 C 85 % 1025,8 hPa 7,3 l/m 26,7 km/h
N
- 10,9 C 13,9 C 62,8 km/h
N
Durchschnitt _ 8,2 C 74 % 1015,1 hPa #22,9 l/m 7,0 km/h N 3,7 C 6,5 C 19,5 km/h